Current | Forecast
Updated: 8:00 PM MSK on December 14, 2017
Observed at Saratov, Russia
Temperature 28°F
Windchill 17°F
Humidity 86%
Dew Point 25°F
Wind SSE at 16 mph
Wind Gust 27 mph
Pressure 30.24 in (Steady)
Conditions Overcast
Visibility 6.2 miles
UV 0 out of 16
Clouds Overcast (OVC) : 1100 ft
Yesterday's Maximum 36°F
Yesterday's Minimum 32°F approx.
Yesterday's Heating Degree Days 31 approx.
Sunrise7:57 AM MSK
Sunset3:45 PM MSK
Moon Rise3:29 AM MSK
Moon Set2:09 PM MSK
Moon PhaseMoon Phase
Waning Crescent
Raw METARMETAR UWSS 141700Z 16007G12MPS 9999 OVC011 M02/M04 Q1024 R12/190055 NOSIG RMK QFE756


Monday
. High: 73° F.
Tuesday
. High: 71° F.
Wednesday
. High: 66° F.
Thursday
. High: 59° F.
Friday
. High: 59° F.
Saturday
. High: 59° F.
Sunday
. High: 66° F.
Monday
. High: 68° F.

Units: English | Metric

Find the Weather for any City, State or Zipcode, or Country:

U.S. State List | Severe Weather | Tropical Storms | Ski Conditions
United States | Canada | Central America | South America | Asia | Europe | Australia | Africa | Islands

Weather Underground

© Copyright 2017
The Weather Company, LLC